KMLP - Mullan Pass
Updated: Sun, 22-Apr-2018 6:53am PDT
Clear
Clear
 Wind from calm
Wind: Calm
Temperature : 28°F , -2°C
Dew Point : 16°F , -9°C
Humidity : 59%
Barometer : 30.16 inHg , 1021.3 hPa
Clouds : Clear
Visibility : 10 miles , 16 km
2018/04/22 13:53 KMLP 221353Z AUTO 00000KT 10SM CLR M02/M09 A3016 RMK AO2 SLP191 T10221094 TSNO

 

KCOE - Coeur d Alene
Updated: Sun, 22-Apr-2018 6:56am PDT
Clear
Clear
 Wind from SSE
Wind: SSE at 5 mph , 7 km/h
Temperature : 37°F , 3°C
Wind Chill : 33°F , 1°C
Dew Point : 28°F , -2°C
Humidity : 70%
Barometer : 30.26 inHg , 1024.7 hPa
Clouds : Clear
Visibility : 10 miles , 16 km
2018/04/22 13:56 KCOE 221356Z AUTO 15004KT 10SM CLR 03/M02 A3026 RMK AO2 SLP277 T00281022

 

KLWS - Lewiston
Updated: Sun, 22-Apr-2018 6:56am PDT
Clear
Clear
 Wind from calm
Wind: Calm
Temperature : 39°F , 4°C
Dew Point : 28°F , -2°C
Humidity : 65%
Barometer : 30.29 inHg , 1025.7 hPa
Clouds : Clear
Visibility : 10 miles , 16 km
2018/04/22 13:56 KLWS 221356Z 00000KT 10SM CLR 04/M02 A3029 RMK AO2 SLP264 T00391017

 

KGEG - Spokane Intl
Updated: Sun, 22-Apr-2018 6:53am PDT
Few clouds
Few clouds
 Wind from ESE
Wind: ESE at 3 mph , 6 km/h
Temperature : 34°F , 1°C
Dew Point : 27°F , -3°C
Humidity : 75%
Barometer : 30.26 inHg , 1024.7 hPa
Clouds : Few clouds
Visibility : 10 miles , 16 km
2018/04/22 13:53 KGEG 221353Z 11003KT 10SM FEW160 FEW240 01/M03 A3026 RMK AO2 SLP258 T00111033 $